Time;durP1;ratioP1;P1;durP2;ratioP2;P2;SDS_P1;SDS_P2;PMS_P1;PMS_P2;Temp;Humidity;BMP_temperature;BMP_pressure;BME280_temperature;BME280_humidity;BME280_pressure;Samples;Min_cycle;Max_cycle;Signal;HPM_P1;HPM_P2
2022/01/10 00:00:18;;;;;;;40.08;35.30;;;;;;;-0.77;100.00;95072.03;6208298;23;20339;-66
2022/01/10 00:02:47;;;;;;;40.97;35.05;;;;;;;-0.74;100.00;95074.44;6208410;23;20001;-64
2022/01/10 00:05:12;;;;;;;39.10;33.67;;;;;;;-0.72;100.00;95077.75;6208737;23;20462;-64
2022/01/10 00:07:39;;;;;;;41.60;35.40;;;;;;;-0.68;100.00;95079.25;6208897;23;20039;-64
2022/01/10 00:10:05;;;;;;;43.63;35.58;;;;;;;-0.68;100.00;95068.91;6208890;23;20016;-64
2022/01/10 00:12:31;;;;;;;50.20;39.25;;;;;;;-0.39;100.00;95065.53;6208651;23;20027;-65
2022/01/10 00:14:56;;;;;;;49.28;40.08;;;;;;;-0.61;100.00;95062.44;6208374;23;20008;-64
2022/01/10 00:17:22;;;;;;;61.95;46.78;;;;;;;-0.66;100.00;95066.25;6208841;23;20004;-64
2022/01/10 00:19:47;;;;;;;63.92;46.40;;;;;;;-0.67;100.00;95065.38;6208463;23;20001;-64
2022/01/10 00:22:13;;;;;;;61.30;47.25;;;;;;;-0.67;100.00;95065.38;6208715;23;20035;-65
2022/01/10 00:24:38;;;;;;;60.72;46.97;;;;;;;-0.73;100.00;95045.06;6208876;23;20013;-64
2022/01/10 00:27:04;;;;;;;67.30;49.70;;;;;;;-0.73;100.00;95052.81;6208164;23;20356;-64
2022/01/10 00:29:30;;;;;;;62.47;46.10;;;;;;;-0.74;100.00;95053.75;6208635;23;20452;-64
2022/01/10 00:31:59;;;;;;;63.67;48.45;;;;;;;-0.73;100.00;95051.06;6208528;23;20000;-64
2022/01/10 00:34:25;;;;;;;69.18;50.47;;;;;;;-0.74;100.00;95048.56;6209076;23;20031;-64
2022/01/10 00:36:51;;;;;;;71.43;50.50;;;;;;;-0.76;100.00;95045.25;6208047;23;20004;-65
2022/01/10 00:39:18;;;;;;;63.70;48.03;;;;;;;-0.77;100.00;95053.94;6208802;23;20005;-64
2022/01/10 00:41:45;;;;;;;68.38;46.85;;;;;;;-0.78;100.00;95050.50;6207128;23;20011;-64
2022/01/10 00:44:11;;;;;;;56.95;44.42;;;;;;;-0.74;100.00;95054.56;6208554;23;20000;-64
2022/01/10 00:46:36;;;;;;;54.92;42.88;;;;;;;-0.73;100.00;95043.31;6208191;23;20016;-64
2022/01/10 00:49:02;;;;;;;50.03;39.65;;;;;;;-0.72;100.00;95051.91;6208471;23;20344;-64
2022/01/10 00:51:27;;;;;;;50.78;40.05;;;;;;;-0.70;100.00;95055.22;6208743;23;20320;-64
2022/01/10 00:53:53;;;;;;;49.22;39.83;;;;;;;-0.68;100.00;95055.97;6206918;23;20013;-64
2022/01/10 00:56:19;;;;;;;48.83;39.13;;;;;;;-0.68;100.00;95055.13;6208386;23;20039;-64
2022/01/10 00:58:46;;;;;;;53.38;38.85;;;;;;;-0.72;100.00;95060.47;6208627;23;20004;-64
2022/01/10 01:01:11;;;;;;;44.35;38.95;;;;;;;-0.68;100.00;95068.91;6208245;23;20423;-64
2022/01/10 01:03:37;;;;;;;48.92;39.38;;;;;;;-0.69;100.00;95072.41;6208251;23;20000;-64
2022/01/10 01:06:03;;;;;;;45.63;37.75;;;;;;;-0.68;100.00;95074.06;6208342;23;20036;-64
2022/01/10 01:08:31;;;;;;;49.30;38.72;;;;;;;-0.65;100.00;95075.66;6208381;23;20112;-64
2022/01/10 01:11:48;;;;;;;49.75;41.22;;;;;;;-0.68;100.00;95075.81;6208152;23;20922;-64
2022/01/10 01:13:55;;;;;;;42.47;35.72;;;;;;;-0.64;100.00;95077.31;6203492;23;20036;-64
2022/01/10 01:19:50;;;;;;;40.35;34.83;;;;;;;-0.65;100.00;95079.06;6208874;23;20019;-64
2022/01/10 01:24:33;;;;;;;34.53;30.80;;;;;;;-0.66;100.00;95082.56;6208543;23;20062;-64
2022/01/10 01:26:59;;;;;;;35.40;31.35;;;;;;;-0.70;100.00;95078.50;6208003;23;20040;-64
2022/01/10 01:29:27;;;;;;;39.25;31.83;;;;;;;-0.72;100.00;95088.91;6208248;23;20075;-64
2022/01/10 01:31:54;;;;;;;37.90;33.05;;;;;;;-0.65;100.00;95084.22;6208476;23;19997;-64
2022/01/10 01:34:22;;;;;;;33.85;30.17;;;;;;;-0.64;100.00;95087.66;6207676;23;20009;-64
2022/01/10 01:36:51;;;;;;;32.13;28.65;;;;;;;-0.71;100.00;95079.41;6207666;23;20000;-64
2022/01/10 01:39:23;;;;;;;32.95;28.65;;;;;;;-0.72;100.00;95082.94;6208251;22;20015;-64
2022/01/10 01:41:50;;;;;;;36.97;30.30;;;;;;;-0.66;100.00;95074.81;6208079;23;20001;-64
2022/01/10 01:44:16;;;;;;;37.15;31.20;;;;;;;-0.61;100.00;95080.53;6208233;23;20027;-64
2022/01/10 01:46:42;;;;;;;37.13;31.20;;;;;;;-0.64;100.00;95092.84;6207800;23;20440;-64
2022/01/10 01:49:09;;;;;;;33.90;30.10;;;;;;;-0.68;100.00;95088.72;6208061;23;20347;-64
2022/01/10 01:51:35;;;;;;;35.00;30.25;;;;;;;-0.66;100.00;95097.25;6208240;22;20394;-64
2022/01/10 01:54:00;;;;;;;37.78;32.55;;;;;;;-0.65;100.00;95093.75;6208022;23;20004;-64
2022/01/10 01:56:26;;;;;;;36.78;31.27;;;;;;;-0.67;100.00;95090.41;6207871;23;20461;-64
2022/01/10 01:58:53;;;;;;;38.78;32.63;;;;;;;-0.67;100.00;95096.41;6208071;23;20134;-64
2022/01/10 02:01:20;;;;;;;40.13;32.80;;;;;;;-0.69;100.00;95093.09;6207702;23;20004;-64
2022/01/10 02:03:46;;;;;;;39.17;32.78;;;;;;;-0.69;100.00;95095.69;6207726;23;20012;-64
2022/01/10 02:06:12;;;;;;;40.25;33.63;;;;;;;-0.69;100.00;95095.69;6205476;23;20021;-64
2022/01/10 02:08:38;;;;;;;41.72;33.70;;;;;;;-0.65;100.00;95094.56;6207101;23;20465;-64
2022/01/10 02:11:06;;;;;;;35.35;29.90;;;;;;;-0.63;100.00;95094.50;6207000;23;20111;-64
2022/01/10 02:13:32;;;;;;;33.92;28.90;;;;;;;-0.64;100.00;95109.16;6207208;23;20463;-64
2022/01/10 02:16:01;;;;;;;32.03;28.60;;;;;;;-0.61;100.00;95114.16;6207401;23;20080;-63
2022/01/10 02:18:27;;;;;;;32.47;28.90;;;;;;;-0.59;100.00;95112.31;6207257;23;20070;-64
2022/01/10 02:20:53;;;;;;;33.35;28.05;;;;;;;-0.59;100.00;95109.72;6207111;23;20000;-64
2022/01/10 02:23:19;;;;;;;33.22;29.58;;;;;;;-0.56;100.00;95102.72;6207405;23;20054;-64
2022/01/10 02:25:46;;;;;;;32.90;28.38;;;;;;;-0.54;100.00;95112.06;6207168;23;20008;-64
2022/01/10 02:28:13;;;;;;;30.83;26.25;;;;;;;-0.60;100.00;95105.47;6206298;23;20005;-64
2022/01/10 02:30:39;;;;;;;31.77;28.20;;;;;;;-0.63;100.00;95113.41;6206754;23;20009;-64
2022/01/10 02:33:05;;;;;;;30.73;26.88;;;;;;;-0.63;100.00;95108.25;6206863;23;20089;-63
2022/01/10 02:35:38;;;;;;;33.22;28.42;;;;;;;-0.60;100.00;95112.41;6205840;23;20004;-64
2022/01/10 02:38:04;;;;;;;30.63;27.35;;;;;;;-0.58;100.00;95110.56;6206864;23;20473;-64
2022/01/10 02:40:31;;;;;;;31.17;27.85;;;;;;;-0.58;100.00;95108.81;6206907;23;20032;-63
2022/01/10 02:42:57;;;;;;;32.28;28.48;;;;;;;-0.56;100.00;95100.97;6206935;23;20000;-64
2022/01/10 02:45:23;;;;;;;32.88;28.15;;;;;;;-0.59;100.00;95108.91;6207303;23;20083;-64
2022/01/10 02:47:50;;;;;;;31.98;28.58;;;;;;;-0.62;100.00;95106.50;6206645;23;20558;-63
2022/01/10 02:50:17;;;;;;;35.22;29.20;;;;;;;-0.64;100.00;95116.91;6207066;23;20013;-64
2022/01/10 02:52:44;;;;;;;30.60;26.58;;;;;;;-0.63;100.00;95121.16;6207084;23;20011;-63
2022/01/10 02:55:11;;;;;;;32.88;28.83;;;;;;;-0.65;100.00;95124.78;6206879;23;20011;-64
2022/01/10 02:57:37;;;;;;;31.50;28.15;;;;;;;-0.64;100.00;95116.91;6206391;23;20021;-64
2022/01/10 03:00:09;;;;;;;27.30;24.33;;;;;;;-0.64;100.00;95119.50;6207877;23;20001;-64
2022/01/10 03:02:35;;;;;;;31.25;27.90;;;;;;;-0.61;100.00;95116.75;6208498;23;20000;-64
2022/01/10 03:05:01;;;;;;;29.75;26.15;;;;;;;-0.59;100.00;95130.41;6208366;23;20005;-64
2022/01/10 03:07:27;;;;;;;30.05;26.85;;;;;;;-0.62;100.00;95130.59;6208648;23;20084;-63
2022/01/10 03:09:54;;;;;;;28.90;24.80;;;;;;;-0.63;100.00;95128.13;6206613;23;20448;-64
2022/01/10 03:12:20;;;;;;;29.02;25.48;;;;;;;-0.63;100.00;95139.28;6208142;23;20012;-64
2022/01/10 03:14:45;;;;;;;28.05;25.15;;;;;;;-0.63;100.00;95135.88;6208162;23;20005;-64
2022/01/10 03:17:12;;;;;;;26.35;23.60;;;;;;;-0.60;100.00;95136.50;6208401;23;20031;-63
2022/01/10 03:19:39;;;;;;;31.67;27.92;;;;;;;-0.52;100.00;95136.06;6206308;22;20043;-63
2022/01/10 03:22:06;;;;;;;37.80;32.13;;;;;;;-0.50;100.00;95141.16;6208049;23;20008;-63
2022/01/10 03:24:31;;;;;;;37.78;31.00;;;;;;;-0.57;100.00;95138.09;6208339;23;20340;-63
2022/01/10 03:26:57;;;;;;;41.90;29.38;;;;;;;-0.59;100.00;95139.94;6208087;23;20004;-63
2022/01/10 03:29:22;;;;;;;36.25;28.40;;;;;;;-0.60;100.00;95131.34;6208278;23;20000;-63
2022/01/10 03:31:48;;;;;;;36.67;29.42;;;;;;;-0.62;100.00;95137.53;6208203;23;20062;-63
2022/01/10 03:34:13;;;;;;;36.90;29.10;;;;;;;-0.67;100.00;95142.09;6207077;23;20008;-63
2022/01/10 03:36:40;;;;;;;98.65;53.95;;;;;;;-0.67;100.00;95131.75;6208184;23;20007;-65
2022/01/10 03:39:06;;;;;;;47.63;34.13;;;;;;;-0.65;100.00;95125.59;6208411;23;20074;-63
2022/01/10 03:41:32;;;;;;;46.25;35.53;;;;;;;-0.61;100.00;95131.44;6208316;23;20009;-63
2022/01/10 03:43:57;;;;;;;44.83;30.77;;;;;;;-0.63;100.00;95128.94;6208426;23;20005;-63
2022/01/10 03:46:23;;;;;;;39.50;31.10;;;;;;;-0.67;100.00;95130.03;6209018;23;20024;-63
2022/01/10 03:48:48;;;;;;;39.08;28.95;;;;;;;-0.72;100.00;95125.09;6208420;23;20012;-63
2022/01/10 03:51:14;;;;;;;35.80;29.40;;;;;;;-0.75;100.00;95135.63;6208622;23;20084;-63
2022/01/10 03:53:39;;;;;;;36.42;28.35;;;;;;;-0.76;100.00;95128.78;6207887;23;20007;-63
2022/01/10 03:56:05;;;;;;;40.90;31.85;;;;;;;-0.75;100.00;95129.63;6207957;23;20461;-64
2022/01/10 03:58:30;;;;;;;36.80;30.08;;;;;;;-0.74;100.00;95129.53;6208621;23;20005;-63
2022/01/10 04:00:56;;;;;;;36.45;29.17;;;;;;;-0.72;100.00;95132.03;6208616;23;20049;-63
2022/01/10 04:03:22;;;;;;;36.38;26.52;;;;;;;-0.73;100.00;95125.22;6207996;23;20004;-63
2022/01/10 04:05:48;;;;;;;35.38;27.40;;;;;;;-0.75;100.00;95119.31;6207914;23;20000;-63
2022/01/10 04:08:14;;;;;;;33.08;25.17;;;;;;;-0.74;100.00;95131.31;6208612;23;20047;-63
2022/01/10 04:10:40;;;;;;;33.55;27.20;;;;;;;-0.70;100.00;95121.59;6208434;23;20444;-63
2022/01/10 04:13:05;;;;;;;34.90;28.13;;;;;;;-0.73;100.00;95122.63;6208835;23;20040;-63
2022/01/10 04:15:30;;;;;;;32.80;25.65;;;;;;;-0.77;100.00;95127.13;6208815;23;20046;-63
2022/01/10 04:17:57;;;;;;;41.92;30.80;;;;;;;-0.78;100.00;95134.97;6208870;23;20076;-63
2022/01/10 04:20:26;;;;;;;40.30;32.50;;;;;;;-0.78;100.00;95130.63;6209064;23;20011;-63
2022/01/10 04:22:51;;;;;;;33.60;27.55;;;;;;;-0.75;100.00;95130.47;6208754;23;20071;-64
2022/01/10 04:25:18;;;;;;;37.08;29.02;;;;;;;-0.67;100.00;95121.41;6208555;23;20084;-63
2022/01/10 04:27:43;;;;;;;38.80;29.08;;;;;;;-0.73;100.00;95123.44;6208787;23;20427;-63
2022/01/10 04:30:10;;;;;;;37.30;29.05;;;;;;;-0.71;100.00;95138.88;6208682;23;20055;-63
2022/01/10 04:32:36;;;;;;;34.55;26.33;;;;;;;-0.75;100.00;95135.63;6208802;23;20012;-63
2022/01/10 04:35:01;;;;;;;40.25;30.23;;;;;;;-0.74;100.00;95141.66;6208537;23;20017;-63
2022/01/10 04:37:26;;;;;;;35.25;29.17;;;;;;;-0.74;100.00;95139.88;6208220;23;20008;-64
2022/01/10 04:39:52;;;;;;;54.10;31.90;;;;;;;-0.74;100.00;95144.22;6207080;23;20428;-63
2022/01/10 04:42:17;;;;;;;48.13;33.10;;;;;;;-0.77;100.00;95144.41;6208732;23;20005;-63
2022/01/10 04:44:43;;;;;;;66.63;29.80;;;;;;;-0.68;100.00;95154.22;6208332;23;20008;-64
2022/01/10 04:47:09;;;;;;;48.00;32.72;;;;;;;-0.74;100.00;95146.81;6208802;23;20348;-63
2022/01/10 04:52:19;;;;;;;55.25;32.45;;;;;;;-0.77;100.00;95142.63;6208763;23;20080;-63
2022/01/10 04:54:44;;;;;;;43.97;29.92;;;;;;;-0.79;100.00;95135.88;6208105;23;20503;-63
2022/01/10 04:57:09;;;;;;;42.90;28.35;;;;;;;-0.80;100.00;95147.97;6207906;23;20051;-64
2022/01/10 04:59:35;;;;;;;48.22;31.77;;;;;;;-0.79;100.00;95144.47;6208562;23;20016;-64
2022/01/10 05:02:00;;;;;;;41.28;29.52;;;;;;;-0.79;100.00;95144.47;6208188;23;20012;-63
2022/01/10 05:04:25;;;;;;;36.20;25.25;;;;;;;-0.80;100.00;95147.13;6208612;23;20005;-63
2022/01/10 05:06:51;;;;;;;42.30;31.92;;;;;;;-0.80;100.00;95149.72;6208663;23;20005;-64
2022/01/10 05:09:16;;;;;;;47.90;32.20;;;;;;;-0.79;100.00;95152.22;6207547;23;20787;-63
2022/01/10 05:11:42;;;;;;;36.53;27.40;;;;;;;-0.75;100.00;95158.06;6207511;23;20004;-62
2022/01/10 05:14:07;;;;;;;42.50;30.15;;;;;;;-0.77;100.00;95165.09;6207208;23;20016;-63
2022/01/10 05:16:32;;;;;;;46.47;27.65;;;;;;;-0.62;100.00;95171.16;6207616;23;20005;-63
2022/01/10 05:18:58;;;;;;;47.42;32.22;;;;;;;-0.70;100.00;95165.56;6207304;23;19997;-63
2022/01/10 05:21:24;;;;;;;60.80;25.65;;;;;;;-0.79;100.00;95170.34;6206840;23;20329;-63
2022/01/10 05:23:49;;;;;;;94.28;25.15;;;;;;;-0.87;100.00;95170.75;6207960;23;20073;-65
2022/01/10 05:26:14;;;;;;;74.63;25.45;;;;;;;-0.93;100.00;95178.84;6208233;23;20036;-65
2022/01/10 05:28:40;;;;;;;152.50;25.73;;;;;;;-0.96;100.00;95181.59;6208383;23;20079;-64
2022/01/10 05:31:05;;;;;;;39.65;25.33;;;;;;;-0.99;100.00;95179.19;6208399;23;20415;-64
2022/01/10 05:33:30;;;;;;;140.07;24.30;;;;;;;-0.97;100.00;95190.28;6208832;23;20063;-64
2022/01/10 05:35:56;;;;;;;210.30;29.00;;;;;;;-1.01;100.00;95194.78;6208411;23;20083;-65
2022/01/10 05:38:21;;;;;;;96.50;23.67;;;;;;;-1.01;100.00;95197.34;6208576;23;20009;-64
2022/01/10 05:40:47;;;;;;;93.05;27.67;;;;;;;-0.97;100.00;95200.63;6208877;23;20154;-65
2022/01/10 05:43:13;;;;;;;176.15;24.20;;;;;;;-1.01;100.00;95209.44;6208421;23;20000;-64
2022/01/10 05:45:43;;;;;;;130.00;25.17;;;;;;;-0.96;100.00;95199.69;6208620;23;20344;-64
2022/01/10 05:48:12;;;;;;;156.32;25.35;;;;;;;-0.81;100.00;95200.59;6208884;23;20085;-64
2022/01/10 05:50:40;;;;;;;201.50;28.25;;;;;;;-0.90;100.00;95201.94;6206696;23;20005;-64
2022/01/10 05:53:06;;;;;;;131.65;30.73;;;;;;;-0.88;100.00;95189.75;6207807;23;20431;-64
2022/01/10 05:55:31;;;;;;;140.30;34.78;;;;;;;-0.85;100.00;95200.84;6208259;23;20027;-65
2022/01/10 05:57:57;;;;;;;89.88;37.97;;;;;;;-0.78;100.00;95213.34;6208616;23;20008;-64
2022/01/10 06:00:23;;;;;;;75.32;31.70;;;;;;;-0.80;100.00;95222.94;6208186;23;20040;-64
2022/01/10 06:02:49;;;;;;;126.28;33.75;;;;;;;-0.75;100.00;95215.78;6208601;23;20049;-64
2022/01/10 06:05:15;;;;;;;96.28;34.83;;;;;;;-0.69;100.00;95216.34;6207608;23;20455;-64
2022/01/10 06:07:41;;;;;;;93.25;37.75;;;;;;;-0.77;100.00;95224.53;6208566;23;20008;-64
2022/01/10 06:10:07;;;;;;;88.65;33.08;;;;;;;-0.74;100.00;95224.38;6208074;23;20008;-64
2022/01/10 06:12:33;;;;;;;143.60;30.17;;;;;;;-0.82;100.00;95232.53;6208446;23;20005;-64
2022/01/10 06:14:58;;;;;;;185.65;27.90;;;;;;;-0.89;100.00;95237.22;6208100;23;20030;-64
2022/01/10 06:17:24;;;;;;;151.55;28.65;;;;;;;-0.91;100.00;95240.78;6208336;23;20019;-64
2022/01/10 06:19:49;;;;;;;59.55;27.98;;;;;;;-0.93;100.00;95243.47;6207961;23;20092;-64
2022/01/10 06:22:14;;;;;;;86.70;30.60;;;;;;;-0.92;100.00;95246.88;6207415;23;20005;-64
2022/01/10 06:24:40;;;;;;;62.35;30.00;;;;;;;-0.90;100.00;95251.03;6208360;23;20046;-64
2022/01/10 06:27:05;;;;;;;54.03;28.33;;;;;;;-0.88;100.00;95249.22;6207813;23;20009;-64
2022/01/10 06:29:31;;;;;;;55.53;28.13;;;;;;;-0.85;100.00;95258.56;6208001;23;20005;-64
2022/01/10 06:31:56;;;;;;;60.50;29.33;;;;;;;-0.83;100.00;95261.91;6207104;23;20045;-64
2022/01/10 06:34:21;;;;;;;54.83;29.15;;;;;;;-0.78;100.00;95264.22;6206705;23;20024;-64
2022/01/10 06:36:47;;;;;;;71.80;31.13;;;;;;;-0.77;100.00;95274.47;6206758;23;20075;-64
2022/01/10 06:39:12;;;;;;;61.90;31.25;;;;;;;-0.76;100.00;95272.75;6209102;23;20079;-65
2022/01/10 06:41:38;;;;;;;56.97;31.73;;;;;;;-0.76;100.00;95285.66;6208805;23;20000;-66
2022/01/10 06:44:03;;;;;;;61.92;33.05;;;;;;;-0.73;100.00;95288.91;6209484;23;19996;-60
2022/01/10 06:46:29;;;;;;;66.45;33.00;;;;;;;-0.71;100.00;95286.25;6208545;23;20012;-60
2022/01/10 06:48:54;;;;;;;55.13;28.95;;;;;;;-0.73;100.00;95288.91;6208440;23;20012;-60
2022/01/10 06:51:20;;;;;;;51.72;29.30;;;;;;;-0.73;100.00;95295.84;6209596;23;20429;-60
2022/01/10 06:53:45;;;;;;;51.00;28.77;;;;;;;-0.74;100.00;95300.16;6207414;23;20108;-60
2022/01/10 06:56:10;;;;;;;59.17;30.08;;;;;;;-0.76;100.00;95304.59;6207522;23;20044;-60
2022/01/10 06:58:36;;;;;;;66.00;28.13;;;;;;;-0.78;100.00;95297.81;6208372;23;20356;-60
2022/01/10 07:01:02;;;;;;;59.33;30.27;;;;;;;-0.76;100.00;95298.59;6208057;23;20075;-60
2022/01/10 07:03:27;;;;;;;63.95;31.17;;;;;;;-0.72;100.00;95297.50;6208581;23;20004;-60
2022/01/10 07:05:52;;;;;;;57.60;29.65;;;;;;;-0.72;100.00;95297.50;6208009;23;20007;-60
2022/01/10 07:08:19;;;;;;;54.00;28.92;;;;;;;-0.75;100.00;95298.50;6209017;23;20004;-61
2022/01/10 07:10:45;;;;;;;52.08;27.45;;;;;;;-0.75;100.00;95308.03;6209269;23;20329;-61
2022/01/10 07:13:10;;;;;;;48.95;27.15;;;;;;;-0.74;100.00;95323.44;6208541;23;20012;-61
2022/01/10 07:15:36;;;;;;;49.25;26.23;;;;;;;-0.70;100.00;95318.94;6208474;23;20028;-60
2022/01/10 07:18:01;;;;;;;49.95;29.65;;;;;;;-0.70;100.00;95326.69;6208775;23;20440;-61
2022/01/10 07:20:27;;;;;;;45.33;29.00;;;;;;;-0.69;100.00;95327.50;6209292;23;20000;-60
2022/01/10 07:22:53;;;;;;;42.25;28.15;;;;;;;-0.67;100.00;95328.25;6208903;23;20001;-60
2022/01/10 07:25:18;;;;;;;41.08;27.98;;;;;;;-0.63;100.00;95329.78;6209051;23;20500;-60
2022/01/10 07:27:43;;;;;;;34.53;25.58;;;;;;;-0.61;100.00;95343.47;6209459;23;20081;-61
2022/01/10 07:30:09;;;;;;;34.28;24.67;;;;;;;-0.62;100.00;95340.03;6209213;23;20443;-61
2022/01/10 07:32:35;;;;;;;38.90;26.38;;;;;;;-0.62;100.00;95345.22;6208942;23;20006;-60
2022/01/10 07:35:00;;;;;;;34.08;24.67;;;;;;;-0.59;100.00;95349.41;6206859;23;20008;-60
2022/01/10 07:37:25;;;;;;;35.85;23.85;;;;;;;-0.62;100.00;95363.31;6206388;23;20049;-61
2022/01/10 07:39:51;;;;;;;35.67;25.00;;;;;;;-0.61;100.00;95356.41;6206723;23;20088;-60
2022/01/10 07:42:17;;;;;;;34.55;24.23;;;;;;;-0.46;100.00;95378.03;6207531;23;20005;-60
2022/01/10 07:44:42;;;;;;;38.85;27.25;;;;;;;-0.46;100.00;95375.44;6207367;23;20000;-60
2022/01/10 07:47:10;;;;;;;43.90;27.02;;;;;;;-0.43;100.00;95377.84;6206046;23;20005;-60
2022/01/10 07:49:36;;;;;;;34.25;25.33;;;;;;;-0.50;100.00;95382.50;6207320;23;20008;-60
2022/01/10 07:52:02;;;;;;;32.92;24.70;;;;;;;-0.52;100.00;95384.34;6208037;23;20008;-61
2022/01/10 07:54:28;;;;;;;33.95;24.80;;;;;;;-0.47;100.00;95407.38;6207664;23;20015;-60
2022/01/10 07:56:54;;;;;;;31.90;22.85;;;;;;;-0.29;100.00;95410.75;6207790;23;20355;-60
2022/01/10 07:59:21;;;;;;;27.85;22.25;;;;;;;-0.38;100.00;95409.47;6207646;23;20064;-61
2022/01/10 08:01:47;;;;;;;34.13;24.92;;;;;;;-0.27;100.00;95408.91;6208017;23;20075;-61
2022/01/10 08:04:13;;;;;;;29.33;23.48;;;;;;;-0.28;100.00;95424.53;6207987;23;20005;-60
2022/01/10 08:06:38;;;;;;;30.45;24.25;;;;;;;-0.18;100.00;95430.84;6208235;23;20120;-61
2022/01/10 08:09:04;;;;;;;23.50;19.48;;;;;;;-0.16;100.00;95431.59;6208260;23;20077;-60
2022/01/10 08:11:29;;;;;;;28.15;21.15;;;;;;;-0.32;100.00;95435.03;6208158;23;20008;-60
2022/01/10 08:13:55;;;;;;;20.80;18.50;;;;;;;-0.35;100.00;95435.19;6207689;23;20475;-60
2022/01/10 08:16:20;;;;;;;25.20;22.50;;;;;;;-0.23;100.00;95440.63;6207820;23;20497;-61
2022/01/10 08:18:46;;;;;;;23.65;20.25;;;;;;;-0.13;100.00;95459.91;6207771;23;20005;-60
2022/01/10 08:21:13;;;;;;;21.38;19.17;;;;;;;-0.20;100.00;95453.41;6205806;23;20079;-60
2022/01/10 08:23:38;;;;;;;19.23;16.13;;;;;;;-0.21;100.00;95456.91;6208243;23;20073;-61
2022/01/10 08:26:07;;;;;;;15.38;12.70;;;;;;;-0.24;100.00;95457.06;6206379;23;20016;-61
2022/01/10 08:28:33;;;;;;;15.52;12.77;;;;;;;-0.23;100.00;95474.25;6206337;23;20512;-60
2022/01/10 08:30:58;;;;;;;14.82;13.13;;;;;;;-0.22;100.00;95471.63;6206149;23;20036;-61
2022/01/10 08:33:23;;;;;;;14.68;13.07;;;;;;;-0.20;100.00;95471.50;6206347;23;20088;-60
2022/01/10 08:35:51;;;;;;;13.80;12.38;;;;;;;-0.14;100.00;95466.00;6206416;23;20382;-61
2022/01/10 08:38:17;;;;;;;14.07;12.57;;;;;;;-0.09;100.00;95468.34;6207161;23;20005;-60
2022/01/10 08:40:42;;;;;;;16.42;13.45;;;;;;;-0.12;100.00;95469.34;6206636;23;20134;-61
2022/01/10 08:43:10;;;;;;;15.70;13.80;;;;;;;-0.11;100.00;95476.22;6208509;23;20013;-60
2022/01/10 08:45:39;;;;;;;15.20;13.70;;;;;;;-0.15;100.00;95480.72;6207513;23;20065;-60
2022/01/10 08:48:05;;;;;;;14.38;13.00;;;;;;;-0.15;100.00;95483.28;6207225;23;20013;-60
2022/01/10 08:50:31;;;;;;;15.32;13.73;;;;;;;-0.13;100.00;95488.38;6208051;23;20049;-61
2022/01/10 08:52:57;;;;;;;14.18;12.68;;;;;;;-0.08;100.00;95485.56;6208422;23;20000;-61
2022/01/10 08:55:22;;;;;;;15.57;13.98;;;;;;;-0.06;100.00;95483.72;6207988;23;20087;-60
2022/01/10 08:57:47;;;;;;;17.25;15.40;;;;;;;-0.08;100.00;95491.56;6207222;23;20021;-60
2022/01/10 09:00:13;;;;;;;18.48;16.60;;;;;;;-0.07;100.00;95506.19;6205781;23;20008;-61
2022/01/10 09:02:39;;;;;;;17.55;15.77;;;;;;;-0.03;100.00;95496.50;6207798;23;20083;-61
2022/01/10 09:05:05;;;;;;;19.02;16.73;;;;;;;-0.02;100.00;95501.59;6207316;23;20019;-60
2022/01/10 09:07:31;;;;;;;19.65;17.65;;;;;;;0.01;100.00;95510.97;6205449;22;20410;-61
2022/01/10 09:09:56;;;;;;;19.45;17.08;;;;;;;0.01;100.00;95515.28;6207788;23;20032;-60
2022/01/10 09:12:21;;;;;;;23.05;18.52;;;;;;;0.04;100.00;95517.72;6207700;23;20024;-61
2022/01/10 09:14:47;;;;;;;22.13;18.27;;;;;;;0.14;100.00;95518.91;6207710;23;20352;-61
2022/01/10 09:17:12;;;;;;;23.80;19.10;;;;;;;0.21;100.00;95521.97;6207480;23;20376;-61
2022/01/10 09:19:38;;;;;;;19.45;16.25;;;;;;;0.18;100.00;95533.34;6207142;23;20435;-60
2022/01/10 09:22:03;;;;;;;22.23;16.25;;;;;;;0.26;100.00;95522.59;6208198;23;20012;-60
2022/01/10 09:24:29;;;;;;;18.27;15.57;;;;;;;0.21;100.00;95529.75;6207768;23;20009;-60
2022/01/10 09:26:56;;;;;;;16.48;14.27;;;;;;;0.20;100.00;95534.09;6206835;23;20479;-60
2022/01/10 09:29:22;;;;;;;17.90;16.00;;;;;;;0.24;100.00;95542.56;6207421;23;20008;-60
2022/01/10 09:31:48;;;;;;;16.92;14.98;;;;;;;0.35;100.00;95536.78;6207229;23;20001;-60
2022/01/10 09:34:13;;;;;;;18.80;16.70;;;;;;;0.40;100.00;95542.56;6207365;23;20364;-60
2022/01/10 09:36:38;;;;;;;19.08;17.08;;;;;;;0.41;100.00;95550.22;6206841;23;20066;-60
2022/01/10 09:39:04;;;;;;;22.95;19.52;;;;;;;0.39;100.00;95552.06;6205967;23;20005;-60
2022/01/10 09:41:29;;;;;;;22.55;20.17;;;;;;;0.39;100.00;95557.25;6207282;23;20009;-60
2022/01/10 09:44:06;;;;;;;23.40;20.38;;;;;;;0.42;100.00;95571.81;6207597;23;20015;-60
2022/01/10 09:46:33;;;;;;;21.35;18.42;;;;;;;0.43;100.00;95579.47;6206399;22;20016;-60
2022/01/10 09:49:00;;;;;;;24.20;19.80;;;;;;;0.49;100.00;95578.31;6207104;23;20053;-61
2022/01/10 09:51:27;;;;;;;25.17;20.52;;;;;;;0.63;100.00;95587.91;6207305;23;20133;-59
2022/01/10 09:54:00;;;;;;;24.13;20.63;;;;;;;0.64;100.00;95591.38;6207884;23;20446;-60
2022/01/10 09:56:27;;;;;;;21.02;18.70;;;;;;;0.69;100.00;95581.56;6206843;23;20024;-60
2022/01/10 09:58:53;;;;;;;28.15;24.80;;;;;;;0.71;100.00;95583.19;6206168;23;20072;-60
2022/01/10 10:01:19;;;;;;;22.70;20.08;;;;;;;0.67;100.00;95575.66;6206727;23;20089;-60
2022/01/10 10:03:47;;;;;;;22.30;19.38;;;;;;;0.67;100.00;95596.38;6207876;23;20009;-60
2022/01/10 10:06:15;;;;;;;22.80;18.67;;;;;;;0.67;100.00;95592.03;6206799;23;20009;-61
2022/01/10 10:08:40;;;;;;;25.35;19.27;;;;;;;0.64;100.00;95589.59;6207055;23;20024;-60
2022/01/10 10:11:07;;;;;;;23.25;20.05;;;;;;;0.62;100.00;95595.78;6208196;23;20032;-60
2022/01/10 10:13:53;;;;;;;22.02;19.58;;;;;;;0.62;100.00;95601.78;6208196;23;20004;-60
2022/01/10 10:16:19;;;;;;;29.10;22.35;;;;;;;0.64;100.00;95605.13;6208362;23;20004;-61
2022/01/10 10:18:47;;;;;;;27.05;23.27;;;;;;;0.62;100.00;95608.75;6208089;23;20009;-60
2022/01/10 10:21:18;;;;;;;24.70;22.05;;;;;;;0.61;100.00;95613.09;6208730;23;20001;-60
2022/01/10 10:23:49;;;;;;;23.83;21.23;;;;;;;0.68;100.00;95606.66;6207966;23;20000;-61
2022/01/10 10:26:24;;;;;;;31.52;25.70;;;;;;;0.76;100.00;95621.78;6206894;23;20007;-60
2022/01/10 10:28:52;;;;;;;27.05;21.38;;;;;;;0.73;100.00;95621.13;6206049;23;20012;-60
2022/01/10 10:31:31;;;;;;;25.45;22.52;;;;;;;0.76;100.00;95621.78;6231925;22;20411;-60
2022/01/10 10:34:01;;;;;;;26.85;23.95;;;;;;;0.78;100.00;95619.97;6208879;23;20001;-60
2022/01/10 10:36:26;;;;;;;31.77;26.00;;;;;;;0.76;100.00;95624.38;6208315;23;20093;-60
2022/01/10 10:38:55;;;;;;;34.83;30.00;;;;;;;0.79;100.00;95629.41;6207222;23;20372;-60
2022/01/10 10:41:21;;;;;;;31.40;25.88;;;;;;;0.88;100.00;95627.22;6206503;23;20047;-60
2022/01/10 10:43:49;;;;;;;31.70;26.60;;;;;;;0.82;100.00;95621.47;6208862;23;20012;-60
2022/01/10 10:46:17;;;;;;;28.48;24.10;;;;;;;0.85;100.00;95621.28;6208202;23;20001;-60
2022/01/10 10:48:47;;;;;;;36.45;27.27;;;;;;;0.90;100.00;95635.75;6208218;23;20008;-60
2022/01/10 10:51:12;;;;;;;27.13;20.42;;;;;;;0.91;100.00;95624.47;6207620;22;20005;-60
2022/01/10 10:53:38;;;;;;;25.42;20.75;;;;;;;0.98;100.00;95626.63;6208367;23;20085;-60
2022/01/10 10:56:05;;;;;;;25.77;19.85;;;;;;;0.96;100.00;95625.88;6207988;23;20013;-60
2022/01/10 10:58:31;;;;;;;16.05;14.50;;;;;;;1.05;100.00;95618.50;6208223;23;20347;-59
2022/01/10 11:00:59;;;;;;;15.02;13.65;;;;;;;1.14;100.00;95629.19;6206938;23;19997;-60
2022/01/10 11:03:25;;;;;;;18.45;16.63;;;;;;;1.20;100.00;95629.78;6207693;23;20008;-60
2022/01/10 11:05:57;;;;;;;16.45;14.85;;;;;;;1.21;100.00;95631.44;6208004;23;20043;-60
2022/01/10 11:08:25;;;;;;;16.73;15.00;;;;;;;1.30;100.00;95625.75;6207561;23;20478;-59
2022/01/10 11:10:51;;;;;;;14.93;13.40;;;;;;;1.28;100.00;95631.03;6207862;23;20067;-60
2022/01/10 11:13:17;;;;;;;18.60;16.70;;;;;;;1.33;100.00;95637.72;6208396;23;20440;-60